createdAt,value
2017-10-01T00:00:12.147Z,10.9
2017-10-01T00:01:13.535Z,10.9
2017-10-01T00:02:14.923Z,10.8
2017-10-01T00:03:16.312Z,10.8
2017-10-01T00:04:17.712Z,10.9
2017-10-01T00:05:19.098Z,10.9
2017-10-01T00:06:20.487Z,10.9
2017-10-01T00:07:21.872Z,10.9
2017-10-01T00:08:23.263Z,10.9
2017-10-01T00:09:24.651Z,10.9
2017-10-01T00:10:26.045Z,10.9
2017-10-01T00:11:27.435Z,10.8
2017-10-01T00:12:28.822Z,10.9
2017-10-01T00:13:30.207Z,10.8
2017-10-01T00:14:31.598Z,10.9
2017-10-01T00:15:32.984Z,10.9
2017-10-01T00:16:34.375Z,10.9
2017-10-01T00:17:35.761Z,11.0
2017-10-01T00:18:37.152Z,10.9
2017-10-01T00:19:38.538Z,10.9
2017-10-01T00:20:39.924Z,10.9
2017-10-01T00:21:41.309Z,10.9
2017-10-01T00:22:42.695Z,10.9
2017-10-01T00:23:44.082Z,10.9
2017-10-01T00:24:45.475Z,10.9
2017-10-01T00:25:46.862Z,10.8
2017-10-01T00:26:48.250Z,10.9
2017-10-01T00:27:49.634Z,10.9
2017-10-01T00:28:51.020Z,10.9
2017-10-01T00:29:52.409Z,10.9
2017-10-01T00:30:53.796Z,10.9
2017-10-01T00:31:55.183Z,10.9
2017-10-01T00:32:56.573Z,10.9
2017-10-01T00:33:57.959Z,10.9
2017-10-01T00:34:59.345Z,10.9
2017-10-01T00:36:00.732Z,10.9
2017-10-01T00:37:02.122Z,10.8
2017-10-01T00:38:03.511Z,10.9
2017-10-01T00:39:04.897Z,10.8
2017-10-01T00:40:06.291Z,10.8
2017-10-01T00:41:07.678Z,10.8
2017-10-01T00:42:09.064Z,10.9
2017-10-01T00:43:10.455Z,10.8
2017-10-01T00:44:11.843Z,10.8
2017-10-01T00:45:13.233Z,10.8
2017-10-01T00:46:14.622Z,10.8
2017-10-01T00:47:16.010Z,10.8
2017-10-01T00:48:17.394Z,10.8
2017-10-01T00:49:18.783Z,10.8
2017-10-01T00:50:20.173Z,10.8
2017-10-01T00:51:21.558Z,10.8
2017-10-01T00:52:22.944Z,10.8
2017-10-01T00:53:24.336Z,10.8
2017-10-01T00:54:25.727Z,10.8
2017-10-01T00:55:27.111Z,10.8
2017-10-01T00:56:28.497Z,10.8
2017-10-01T00:57:29.882Z,10.9
2017-10-01T00:58:31.268Z,10.9
2017-10-01T00:59:32.663Z,10.9
2017-10-01T01:00:34.055Z,10.8
2017-10-01T01:01:35.450Z,10.9
2017-10-01T01:02:36.839Z,10.9
2017-10-01T01:03:38.230Z,10.9
2017-10-01T01:04:39.612Z,10.9
2017-10-01T01:05:41.001Z,10.9
2017-10-01T01:06:42.388Z,10.9
2017-10-01T01:07:43.777Z,11.0
2017-10-01T01:08:45.168Z,11.0
2017-10-01T01:09:46.554Z,11.0
2017-10-01T01:10:47.940Z,11.0
2017-10-01T01:11:49.329Z,11.0
2017-10-01T01:12:50.715Z,11.0
2017-10-01T01:13:52.102Z,11.0
2017-10-01T01:14:53.492Z,11.1
2017-10-01T01:15:54.881Z,11.0
2017-10-01T01:16:56.266Z,11.2
2017-10-01T01:17:57.659Z,11.2
2017-10-01T01:18:59.038Z,11.1
2017-10-01T01:20:00.433Z,11.1
2017-10-01T01:21:01.822Z,11.1
2017-10-01T01:22:03.213Z,11.1
2017-10-01T01:23:04.599Z,11.3
2017-10-01T01:24:05.982Z,11.1
2017-10-01T01:25:07.372Z,11.2
2017-10-01T01:26:08.760Z,11.2
2017-10-01T01:27:10.147Z,11.1
2017-10-01T01:28:11.533Z,11.2
2017-10-01T01:29:12.921Z,11.1
2017-10-01T01:30:14.316Z,11.1
2017-10-01T01:31:15.696Z,11.1
2017-10-01T01:32:17.084Z,11.1
2017-10-01T01:33:18.469Z,11.2
2017-10-01T01:34:19.856Z,11.1
2017-10-01T01:35:21.247Z,11.1
2017-10-01T01:36:22.636Z,11.3
2017-10-01T01:37:24.032Z,11.2
2017-10-01T01:38:25.461Z,11.2
2017-10-01T01:39:26.848Z,11.1
2017-10-01T01:40:28.235Z,11.1
2017-10-01T01:41:29.625Z,11.2
2017-10-01T01:42:31.012Z,11.2
2017-10-01T01:43:32.398Z,11.1
2017-10-01T01:44:33.793Z,11.2
2017-10-01T01:45:35.177Z,11.2
2017-10-01T01:46:36.565Z,11.3
2017-10-01T01:47:37.949Z,11.2
2017-10-01T01:48:39.340Z,11.3
2017-10-01T01:49:40.729Z,11.1
2017-10-01T01:50:42.118Z,11.1
2017-10-01T01:51:43.505Z,11.1
2017-10-01T01:52:44.891Z,11.1
2017-10-01T01:53:46.278Z,11.2
2017-10-01T01:54:47.672Z,11.1
2017-10-01T01:55:49.056Z,11.2
2017-10-01T01:56:50.443Z,11.1
2017-10-01T01:57:51.836Z,11.1
2017-10-01T01:58:53.226Z,11.0
2017-10-01T01:59:54.613Z,11.1
2017-10-01T02:00:55.998Z,11.1
2017-10-01T02:01:57.391Z,11.0
2017-10-01T02:02:58.778Z,11.1
2017-10-01T02:04:00.165Z,11.0
2017-10-01T02:05:01.555Z,11.1
2017-10-01T02:06:02.944Z,11.1
2017-10-01T02:07:04.333Z,11.0
2017-10-01T02:08:05.722Z,11.0
2017-10-01T02:09:07.109Z,11.1
2017-10-01T02:10:08.497Z,11.0
2017-10-01T02:11:09.885Z,11.0
2017-10-01T02:12:11.277Z,10.9
2017-10-01T02:13:12.665Z,10.9
2017-10-01T02:14:14.055Z,10.9
2017-10-01T02:15:15.435Z,10.9
2017-10-01T02:16:16.826Z,10.9
2017-10-01T02:17:18.216Z,10.8
2017-10-01T02:18:19.605Z,10.8
2017-10-01T02:19:20.995Z,10.8
2017-10-01T02:20:22.387Z,10.8
2017-10-01T02:21:23.772Z,10.8
2017-10-01T02:22:25.158Z,10.8
2017-10-01T02:23:26.543Z,10.8
2017-10-01T02:24:27.931Z,10.8
2017-10-01T02:25:29.322Z,10.8
2017-10-01T02:26:30.712Z,10.8
2017-10-01T02:27:32.116Z,10.8
2017-10-01T02:28:33.504Z,10.8
2017-10-01T02:29:34.892Z,10.8
2017-10-01T02:30:36.278Z,10.8
2017-10-01T02:31:37.667Z,10.8
2017-10-01T02:32:39.055Z,10.7
2017-10-01T02:33:40.444Z,10.7
2017-10-01T02:34:41.835Z,10.7
2017-10-01T02:35:43.219Z,10.7
2017-10-01T02:36:44.607Z,10.7
2017-10-01T02:37:45.998Z,10.7
2017-10-01T02:38:47.386Z,10.7
2017-10-01T02:39:48.775Z,10.8
2017-10-01T02:40:50.165Z,10.7
2017-10-01T02:41:51.553Z,10.7
2017-10-01T02:42:52.944Z,10.7
2017-10-01T02:43:54.327Z,10.6
2017-10-01T02:44:55.717Z,10.7
2017-10-01T02:45:57.108Z,10.7
2017-10-01T02:46:58.495Z,10.8
2017-10-01T02:47:59.883Z,10.7
2017-10-01T02:49:01.276Z,10.7
2017-10-01T02:50:02.660Z,10.7
2017-10-01T02:51:04.046Z,10.7
2017-10-01T02:52:05.434Z,10.7
2017-10-01T02:53:06.822Z,10.7
2017-10-01T02:54:08.209Z,10.7
2017-10-01T02:55:09.599Z,10.6
2017-10-01T02:56:10.987Z,10.7
2017-10-01T02:57:12.375Z,10.6
2017-10-01T02:58:13.763Z,10.7
2017-10-01T02:59:15.151Z,10.6
2017-10-01T03:00:16.534Z,10.6
2017-10-01T03:01:17.925Z,10.6
2017-10-01T03:02:19.314Z,10.6
2017-10-01T03:03:20.703Z,10.5
2017-10-01T03:04:22.091Z,10.6
2017-10-01T03:05:23.479Z,10.6
2017-10-01T03:06:24.867Z,10.5
2017-10-01T03:07:26.252Z,10.6
2017-10-01T03:08:27.644Z,10.5
2017-10-01T03:09:29.037Z,10.5
2017-10-01T03:10:30.419Z,10.4
2017-10-01T03:11:31.811Z,10.4
2017-10-01T03:12:33.202Z,10.5
2017-10-01T03:13:34.585Z,10.5
2017-10-01T03:14:35.973Z,10.5
2017-10-01T03:15:37.403Z,10.4
2017-10-01T03:16:38.792Z,10.4
2017-10-01T03:17:40.182Z,10.5
2017-10-01T03:18:41.569Z,10.4
2017-10-01T03:19:42.957Z,10.5
2017-10-01T03:20:44.343Z,10.4
2017-10-01T03:21:45.731Z,10.5
2017-10-01T03:22:47.117Z,10.5
2017-10-01T03:23:48.507Z,10.5
2017-10-01T03:24:49.897Z,10.5
2017-10-01T03:25:51.280Z,10.5
2017-10-01T03:26:52.666Z,10.5
2017-10-01T03:27:54.054Z,10.4
2017-10-01T03:28:55.441Z,10.5
2017-10-01T03:29:56.832Z,10.5
2017-10-01T03:30:58.218Z,10.6
2017-10-01T03:31:59.606Z,10.5
2017-10-01T03:33:00.990Z,10.5
2017-10-01T03:34:02.376Z,10.5
2017-10-01T03:35:03.762Z,10.5
2017-10-01T03:36:05.148Z,10.4
2017-10-01T03:37:06.537Z,10.5
2017-10-01T03:38:07.929Z,10.5
2017-10-01T03:39:09.319Z,10.5
2017-10-01T03:40:10.707Z,10.5
2017-10-01T03:41:12.093Z,10.5
2017-10-01T03:42:13.478Z,10.5
2017-10-01T03:43:14.864Z,10.5
2017-10-01T03:44:16.250Z,10.5
2017-10-01T03:45:17.640Z,10.5
2017-10-01T03:46:19.029Z,10.5
2017-10-01T03:47:20.412Z,10.5
2017-10-01T03:48:21.809Z,10.4
2017-10-01T03:49:23.196Z,10.5
2017-10-01T03:50:24.586Z,10.5
2017-10-01T03:51:25.971Z,10.4
2017-10-01T03:52:27.360Z,10.4
2017-10-01T03:53:28.747Z,10.5
2017-10-01T03:54:30.132Z,10.4
2017-10-01T03:55:31.519Z,10.4
2017-10-01T03:56:32.910Z,10.4
2017-10-01T03:57:34.303Z,10.3
2017-10-01T03:58:35.687Z,10.3
2017-10-01T03:59:37.077Z,10.3
2017-10-01T04:00:38.464Z,10.4
2017-10-01T04:01:39.849Z,10.3
2017-10-01T04:02:41.236Z,10.3
2017-10-01T04:03:42.626Z,10.3
2017-10-01T04:04:44.011Z,10.2
2017-10-01T04:05:45.404Z,10.3
2017-10-01T04:06:46.792Z,10.2
2017-10-01T04:07:48.182Z,10.1
2017-10-01T04:08:49.569Z,10.2
2017-10-01T04:09:50.955Z,10.3
2017-10-01T04:10:52.342Z,10.2
2017-10-01T04:11:53.734Z,10.2
2017-10-01T04:12:55.118Z,10.2
2017-10-01T04:13:56.507Z,10.2
2017-10-01T04:14:57.896Z,10.3
2017-10-01T04:15:59.286Z,10.3
2017-10-01T04:17:00.670Z,10.3
2017-10-01T04:18:02.054Z,10.3
2017-10-01T04:19:03.441Z,10.4
2017-10-01T04:20:04.828Z,10.3
2017-10-01T04:21:06.219Z,10.4
2017-10-01T04:22:07.609Z,10.5
2017-10-01T04:23:08.994Z,10.4
2017-10-01T04:24:10.381Z,10.5
2017-10-01T04:25:11.768Z,10.5
2017-10-01T04:26:13.159Z,10.5
2017-10-01T04:27:14.548Z,10.5
2017-10-01T04:28:15.937Z,10.5
2017-10-01T04:29:17.328Z,10.5
2017-10-01T04:30:18.713Z,10.5
2017-10-01T04:31:20.097Z,10.5
2017-10-01T04:32:21.485Z,10.6
2017-10-01T04:33:22.873Z,10.7
2017-10-01T04:34:24.260Z,10.7
2017-10-01T04:35:25.652Z,10.6
2017-10-01T04:36:27.040Z,10.7
2017-10-01T04:37:28.424Z,10.7
2017-10-01T04:38:29.815Z,10.7
2017-10-01T04:39:31.199Z,10.7
2017-10-01T04:40:32.592Z,10.7
2017-10-01T04:41:33.976Z,10.8
2017-10-01T04:42:35.366Z,10.8
2017-10-01T04:43:36.757Z,10.8
2017-10-01T04:44:38.140Z,10.8
2017-10-01T04:45:39.529Z,10.7
2017-10-01T04:46:40.917Z,10.7
2017-10-01T04:47:42.307Z,10.7
2017-10-01T04:48:43.694Z,10.7
2017-10-01T04:49:45.084Z,10.8
2017-10-01T04:50:46.471Z,10.8
2017-10-01T04:51:47.857Z,10.8
2017-10-01T04:52:49.245Z,10.8
2017-10-01T04:53:50.632Z,10.8
2017-10-01T04:54:52.023Z,10.8
2017-10-01T04:55:53.412Z,10.8
2017-10-01T04:56:54.801Z,10.8
2017-10-01T04:57:56.191Z,10.8
2017-10-01T04:58:57.576Z,10.8
2017-10-01T04:59:58.960Z,10.8
2017-10-01T05:01:00.346Z,10.8
2017-10-01T05:02:01.735Z,10.8
2017-10-01T05:03:03.123Z,10.8
2017-10-01T05:04:04.515Z,10.8
2017-10-01T05:05:05.903Z,10.8
2017-10-01T05:06:07.289Z,10.8
2017-10-01T05:07:08.676Z,10.8
2017-10-01T05:08:10.063Z,10.9
2017-10-01T05:09:11.452Z,10.9
2017-10-01T05:10:12.840Z,10.9
2017-10-01T05:11:14.227Z,10.9
2017-10-01T05:12:15.622Z,10.9
2017-10-01T05:13:17.003Z,10.9
2017-10-01T05:14:18.389Z,10.9
2017-10-01T05:15:19.775Z,10.9
2017-10-01T05:16:21.163Z,10.9
2017-10-01T05:17:22.550Z,10.9
2017-10-01T05:18:23.935Z,10.9
2017-10-01T05:19:25.326Z,10.9
2017-10-01T05:20:26.712Z,10.9
2017-10-01T05:21:28.097Z,10.9
2017-10-01T05:22:29.483Z,10.9
2017-10-01T05:23:30.873Z,11.0
2017-10-01T05:24:32.262Z,10.9
2017-10-01T05:25:33.652Z,11.0
2017-10-01T05:26:35.046Z,10.9
2017-10-01T05:27:36.430Z,10.9
2017-10-01T05:28:37.822Z,10.9
2017-10-01T05:29:39.206Z,11.0
2017-10-01T05:30:40.595Z,11.1
2017-10-01T05:31:41.983Z,11.0
2017-10-01T05:32:43.378Z,11.0
2017-10-01T05:33:44.760Z,11.1
2017-10-01T05:34:46.146Z,11.1
2017-10-01T05:35:47.535Z,11.0
2017-10-01T05:36:48.924Z,11.1
2017-10-01T05:37:50.310Z,11.1
2017-10-01T05:38:51.697Z,11.1
2017-10-01T05:39:53.091Z,11.1
2017-10-01T05:40:54.479Z,11.1
2017-10-01T05:41:55.867Z,11.2
2017-10-01T05:42:57.258Z,11.2
2017-10-01T05:43:58.648Z,11.2
2017-10-01T05:45:00.038Z,11.1
2017-10-01T05:46:01.430Z,11.2
2017-10-01T05:47:02.822Z,11.2
2017-10-01T05:48:04.213Z,11.2
2017-10-01T05:49:05.603Z,11.3
2017-10-01T05:50:06.997Z,11.2
2017-10-01T05:51:08.387Z,11.3
2017-10-01T05:52:09.776Z,11.3
2017-10-01T05:53:11.168Z,11.3
2017-10-01T05:54:12.561Z,11.4
2017-10-01T05:55:13.964Z,11.3
2017-10-01T05:56:15.350Z,11.4
2017-10-01T05:57:16.742Z,11.4
2017-10-01T05:58:18.131Z,11.5
2017-10-01T05:59:19.530Z,11.4
2017-10-01T06:00:20.920Z,11.4
2017-10-01T06:01:22.315Z,11.4
2017-10-01T06:02:23.707Z,11.5
2017-10-01T06:03:25.094Z,11.5
2017-10-01T06:04:26.488Z,11.5
2017-10-01T06:05:27.882Z,11.5
2017-10-01T06:06:29.274Z,11.5
2017-10-01T06:07:30.666Z,11.6
2017-10-01T06:08:32.058Z,11.6
2017-10-01T06:09:33.449Z,11.6
2017-10-01T06:10:34.837Z,11.6
2017-10-01T06:11:36.229Z,11.7
2017-10-01T06:12:37.618Z,11.6
2017-10-01T06:13:39.008Z,11.7
2017-10-01T06:14:40.404Z,11.6
2017-10-01T06:15:41.795Z,11.7
2017-10-01T06:16:43.191Z,11.7
2017-10-01T06:17:44.540Z,11.7
2017-10-01T06:18:45.931Z,11.9
2017-10-01T06:19:47.322Z,11.9
2017-10-01T06:20:48.720Z,11.9
2017-10-01T06:21:50.105Z,11.9
2017-10-01T06:22:51.498Z,11.9
2017-10-01T06:23:52.888Z,12.0
2017-10-01T06:24:54.279Z,12.0
2017-10-01T06:25:55.798Z,12.0
2017-10-01T06:26:57.234Z,12.0
2017-10-01T06:27:58.629Z,12.1
2017-10-01T06:29:00.022Z,12.1
2017-10-01T06:30:01.410Z,12.1
2017-10-01T06:31:02.805Z,12.1
2017-10-01T06:32:04.244Z,12.1
2017-10-01T06:33:05.636Z,12.2
2017-10-01T06:34:07.033Z,12.3
2017-10-01T06:35:08.420Z,12.2
2017-10-01T06:36:09.812Z,12.2
2017-10-01T06:37:11.201Z,12.3
2017-10-01T06:38:12.596Z,12.4
2017-10-01T06:39:13.989Z,12.4
2017-10-01T06:40:15.378Z,12.4
2017-10-01T06:41:16.773Z,12.5
2017-10-01T06:42:18.161Z,12.4
2017-10-01T06:43:19.555Z,12.5
2017-10-01T06:44:20.950Z,12.5
2017-10-01T06:45:22.345Z,12.6
2017-10-01T06:46:23.742Z,12.6
2017-10-01T06:47:25.132Z,12.7
2017-10-01T06:48:26.526Z,12.7
2017-10-01T06:49:27.935Z,12.7
2017-10-01T06:50:29.326Z,12.7
2017-10-01T06:51:30.722Z,12.8
2017-10-01T06:52:32.127Z,12.9
2017-10-01T06:53:33.516Z,13.0
2017-10-01T06:54:34.909Z,12.9
2017-10-01T06:55:36.308Z,12.9
2017-10-01T06:56:37.694Z,12.9
2017-10-01T06:57:39.087Z,12.9
2017-10-01T06:58:40.481Z,13.0
2017-10-01T06:59:41.877Z,12.9
2017-10-01T07:00:43.266Z,13.0
2017-10-01T07:01:44.659Z,13.0
2017-10-01T07:02:46.053Z,13.0
2017-10-01T07:03:47.448Z,13.0
2017-10-01T07:04:48.842Z,13.0
2017-10-01T07:05:50.238Z,12.9
2017-10-01T07:06:51.635Z,13.0
2017-10-01T07:07:53.024Z,13.0
2017-10-01T07:08:54.424Z,13.0
2017-10-01T07:09:55.817Z,13.0
2017-10-01T07:10:57.212Z,13.0
2017-10-01T07:11:58.601Z,13.0
2017-10-01T07:12:59.997Z,13.1
2017-10-01T07:14:01.388Z,13.1
2017-10-01T07:15:02.781Z,13.0
2017-10-01T07:16:04.169Z,13.1
2017-10-01T07:17:05.562Z,13.1
2017-10-01T07:18:06.956Z,13.1
2017-10-01T07:19:08.349Z,13.1
2017-10-01T07:20:09.743Z,13.2
2017-10-01T07:21:11.137Z,13.0
2017-10-01T07:22:12.532Z,13.1
2017-10-01T07:23:13.923Z,13.1
2017-10-01T07:24:15.318Z,13.2
2017-10-01T07:25:16.712Z,13.1
2017-10-01T07:26:18.108Z,13.2
2017-10-01T07:27:19.503Z,13.3
2017-10-01T07:28:20.895Z,13.2
2017-10-01T07:29:22.290Z,13.4
2017-10-01T07:30:23.684Z,13.3
2017-10-01T07:31:25.081Z,13.4
2017-10-01T07:32:26.492Z,13.4
2017-10-01T07:33:27.870Z,13.5
2017-10-01T07:34:29.265Z,13.4
2017-10-01T07:35:30.659Z,13.5
2017-10-01T07:36:32.050Z,13.5
2017-10-01T07:37:33.446Z,13.5
2017-10-01T07:38:34.842Z,13.6
2017-10-01T07:39:36.241Z,13.6
2017-10-01T07:40:37.634Z,13.6
2017-10-01T07:41:39.028Z,13.8
2017-10-01T07:42:40.423Z,13.8
2017-10-01T07:43:41.820Z,13.8
2017-10-01T07:44:43.294Z,13.8
2017-10-01T07:45:44.678Z,13.8
2017-10-01T07:46:46.094Z,13.8
2017-10-01T07:47:47.489Z,13.9
2017-10-01T07:48:48.884Z,14.0
2017-10-01T07:49:50.321Z,14.0
2017-10-01T07:50:51.712Z,14.1
2017-10-01T07:51:53.102Z,14.1
2017-10-01T07:52:54.501Z,14.2
2017-10-01T07:53:55.892Z,14.2
2017-10-01T07:54:57.393Z,14.3
2017-10-01T07:55:58.793Z,14.4
2017-10-01T07:57:00.185Z,14.5
2017-10-01T07:58:01.841Z,14.5
2017-10-01T07:59:03.237Z,14.5
2017-10-01T08:00:04.632Z,14.7
2017-10-01T08:01:06.027Z,14.7
2017-10-01T08:02:07.422Z,14.8
2017-10-01T08:03:08.817Z,14.9
2017-10-01T08:04:10.214Z,14.9
2017-10-01T08:05:11.635Z,14.9
2017-10-01T08:06:13.027Z,15.0
2017-10-01T08:07:14.423Z,15.1
2017-10-01T08:08:15.816Z,15.1
2017-10-01T08:09:17.390Z,15.1
2017-10-01T08:10:18.807Z,15.1
2017-10-01T08:11:20.204Z,15.1
2017-10-01T08:12:21.880Z,15.1
2017-10-01T08:13:23.276Z,15.1
2017-10-01T08:14:24.670Z,15.1
2017-10-01T08:15:26.066Z,15.0
2017-10-01T08:16:27.747Z,15.1
2017-10-01T08:17:29.145Z,15.1
2017-10-01T08:18:30.539Z,15.1
2017-10-01T08:19:31.935Z,15.0
2017-10-01T08:20:33.329Z,15.1
2017-10-01T08:21:34.722Z,15.1
2017-10-01T08:22:36.115Z,15.1
2017-10-01T08:23:37.518Z,15.1
2017-10-01T08:24:38.916Z,15.1
2017-10-01T08:25:40.314Z,15.1
2017-10-01T08:26:41.709Z,15.2
2017-10-01T08:27:43.104Z,15.3
2017-10-01T08:28:44.505Z,15.4
2017-10-01T08:29:45.898Z,15.4
2017-10-01T08:30:47.336Z,15.5
2017-10-01T08:31:48.732Z,15.6
2017-10-01T08:32:50.133Z,15.6
2017-10-01T08:33:51.523Z,15.7
2017-10-01T08:34:52.920Z,15.7
2017-10-01T08:35:54.317Z,15.6
2017-10-01T08:36:55.771Z,15.7
2017-10-01T08:37:57.296Z,15.8
2017-10-01T08:38:58.691Z,15.7
2017-10-01T08:40:00.292Z,15.8
2017-10-01T08:41:01.689Z,15.8
2017-10-01T08:42:03.082Z,15.9
2017-10-01T08:43:04.549Z,16.0
2017-10-01T08:44:05.917Z,16.2
2017-10-01T08:45:07.316Z,16.2
2017-10-01T08:46:08.714Z,16.3
2017-10-01T08:47:10.216Z,16.3
2017-10-01T08:48:11.610Z,16.5
2017-10-01T08:49:13.091Z,16.4
2017-10-01T08:50:14.486Z,16.6
2017-10-01T08:51:15.881Z,16.6
2017-10-01T08:52:17.295Z,16.8
2017-10-01T08:53:18.708Z,16.8
2017-10-01T08:54:20.109Z,17.0
2017-10-01T08:55:21.499Z,17.0
2017-10-01T08:56:22.895Z,17.0
2017-10-01T08:57:24.410Z,17.1
2017-10-01T08:58:25.813Z,17.1
2017-10-01T08:59:27.413Z,17.2
2017-10-01T09:00:28.813Z,17.3
2017-10-01T09:01:30.222Z,17.4
2017-10-01T09:02:31.615Z,17.4
2017-10-01T09:03:33.079Z,17.5
2017-10-01T09:04:34.475Z,17.7
2017-10-01T09:05:35.881Z,17.6
2017-10-01T09:06:37.373Z,17.6
2017-10-01T09:07:38.790Z,17.6
2017-10-01T09:08:40.320Z,17.8
2017-10-01T09:09:41.773Z,17.9
2017-10-01T09:10:43.168Z,17.9
2017-10-01T09:11:44.625Z,18.1
2017-10-01T09:12:46.027Z,18.3
2017-10-01T09:13:47.425Z,18.9
2017-10-01T09:14:48.824Z,19.2
2017-10-01T09:15:50.312Z,19.6
2017-10-01T09:16:51.811Z,19.9
2017-10-01T09:17:53.250Z,20.3
2017-10-01T09:18:54.668Z,20.7
2017-10-01T09:19:56.108Z,21.2
2017-10-01T09:20:57.511Z,21.7
2017-10-01T09:21:59.031Z,21.9
2017-10-01T09:23:00.477Z,22.2
2017-10-01T09:24:01.891Z,22.7
2017-10-01T09:25:03.390Z,23.0
2017-10-01T09:26:06.577Z,23.2
2017-10-01T09:27:08.898Z,23.2
2017-10-01T09:28:10.502Z,23.4
2017-10-01T09:29:11.885Z,23.8
2017-10-01T09:30:13.296Z,24.2
2017-10-01T09:31:14.697Z,24.6
2017-10-01T09:32:16.103Z,24.9
2017-10-01T09:33:17.619Z,25.4
2017-10-01T09:34:19.097Z,25.8
2017-10-01T09:35:20.501Z,25.9
2017-10-01T09:36:21.944Z,26.0
2017-10-01T09:37:23.351Z,26.3
2017-10-01T09:38:24.756Z,26.4
2017-10-01T09:39:26.275Z,26.4
2017-10-01T09:40:27.818Z,26.5
2017-10-01T09:41:29.232Z,26.6
2017-10-01T09:42:30.630Z,26.8
2017-10-01T09:43:32.034Z,26.9
2017-10-01T09:44:33.487Z,27.1
2017-10-01T09:45:34.890Z,27.3
2017-10-01T09:46:36.630Z,27.5
2017-10-01T09:47:38.065Z,27.6
2017-10-01T09:48:39.509Z,27.5
2017-10-01T09:49:41.749Z,27.5
2017-10-01T09:50:43.160Z,27.5
2017-10-01T09:51:44.566Z,27.3
2017-10-01T09:52:45.981Z,27.2
2017-10-01T09:53:47.419Z,26.8
2017-10-01T09:54:48.825Z,26.9
2017-10-01T09:55:50.490Z,27.2
2017-10-01T09:56:51.936Z,26.9
2017-10-01T09:57:53.434Z,26.8
2017-10-01T09:58:54.834Z,27.3
2017-10-01T09:59:56.292Z,26.9
2017-10-01T10:00:57.876Z,26.1
2017-10-01T10:01:59.388Z,25.7
2017-10-01T10:03:00.670Z,25.1
2017-10-01T10:04:02.158Z,25.3
2017-10-01T10:05:03.763Z,25.6
2017-10-01T10:06:05.189Z,25.6
2017-10-01T10:07:06.593Z,25.7
2017-10-01T10:08:08.084Z,25.7
2017-10-01T10:09:09.643Z,25.4
2017-10-01T10:10:11.107Z,25.1
2017-10-01T10:11:12.517Z,25.3
2017-10-01T10:12:14.005Z,25.3
2017-10-01T10:13:15.584Z,25.3
2017-10-01T10:14:16.988Z,24.9
2017-10-01T10:15:18.395Z,25.2
2017-10-01T10:16:20.004Z,25.2
2017-10-01T10:17:21.607Z,25.5
2017-10-01T10:18:23.031Z,24.8
2017-10-01T10:19:24.424Z,24.4
2017-10-01T10:20:25.942Z,24.2
2017-10-01T10:21:27.589Z,24.2
2017-10-01T10:22:28.996Z,23.9
2017-10-01T10:23:30.399Z,24.6
2017-10-01T10:24:31.882Z,24.9
2017-10-01T10:25:33.387Z,25.5
2017-10-01T10:26:34.678Z,24.6
2017-10-01T10:27:36.122Z,24.2
2017-10-01T10:28:37.712Z,24.7
2017-10-01T10:29:39.119Z,25.0
2017-10-01T10:30:40.528Z,25.4
2017-10-01T10:31:42.015Z,25.0
2017-10-01T10:32:43.555Z,23.9
2017-10-01T10:33:44.964Z,23.9
2017-10-01T10:34:46.369Z,23.6
2017-10-01T10:35:47.857Z,23.4
2017-10-01T10:36:49.344Z,23.3
2017-10-01T10:37:51.436Z,23.7
2017-10-01T10:38:53.078Z,24.3
2017-10-01T10:39:54.613Z,25.1
2017-10-01T10:40:56.024Z,25.6
2017-10-01T10:41:57.427Z,25.3
2017-10-01T10:42:58.991Z,25.3
2017-10-01T10:44:00.541Z,25.5
2017-10-01T10:45:01.947Z,25.4
2017-10-01T10:46:03.349Z,24.8
2017-10-01T10:47:04.845Z,25.3
2017-10-01T10:48:06.262Z,25.3
2017-10-01T10:49:07.664Z,24.9
2017-10-01T10:50:09.080Z,24.8
2017-10-01T10:51:10.500Z,24.8
2017-10-01T10:52:11.900Z,24.7
2017-10-01T10:53:13.316Z,23.7
2017-10-01T10:54:14.975Z,23.1
2017-10-01T10:55:16.414Z,23.2
2017-10-01T10:56:17.820Z,22.9
2017-10-01T10:57:19.286Z,23.2
2017-10-01T10:58:20.844Z,23.1
2017-10-01T10:59:22.269Z,22.9
2017-10-01T11:00:23.689Z,22.8
2017-10-01T11:01:25.219Z,22.8
2017-10-01T11:02:26.647Z,22.6
2017-10-01T11:03:28.050Z,22.4
2017-10-01T11:04:29.447Z,22.3
2017-10-01T11:05:30.895Z,22.1
2017-10-01T11:06:32.489Z,22.2
2017-10-01T11:07:33.890Z,22.1
2017-10-01T11:08:35.297Z,22.1
2017-10-01T11:09:36.897Z,22.0
2017-10-01T11:10:38.483Z,21.7
2017-10-01T11:11:39.909Z,21.8
2017-10-01T11:12:41.299Z,21.9
2017-10-01T11:13:42.841Z,21.6
2017-10-01T11:14:44.345Z,21.6
2017-10-01T11:15:45.742Z,21.5
2017-10-01T11:16:47.300Z,21.4
2017-10-01T11:17:48.883Z,21.5
2017-10-01T11:18:50.443Z,21.5
2017-10-01T11:19:51.853Z,21.7
2017-10-01T11:20:53.294Z,21.4
2017-10-01T11:21:54.801Z,21.4
2017-10-01T11:22:56.232Z,21.6
2017-10-01T11:23:57.699Z,21.8
2017-10-01T11:24:59.209Z,21.8
2017-10-01T11:26:00.801Z,21.7
2017-10-01T11:27:02.205Z,21.6
2017-10-01T11:28:03.739Z,21.4
2017-10-01T11:29:05.146Z,21.3
2017-10-01T11:30:06.547Z,21.3
2017-10-01T11:31:08.075Z,21.3
2017-10-01T11:32:09.476Z,21.3
2017-10-01T11:33:10.873Z,21.3
2017-10-01T11:34:12.394Z,21.2
2017-10-01T11:35:13.942Z,21.2
2017-10-01T11:36:15.340Z,20.9
2017-10-01T11:37:16.873Z,21.0
2017-10-01T11:38:18.408Z,21.0
2017-10-01T11:39:19.809Z,21.2
2017-10-01T11:40:21.208Z,21.3
2017-10-01T11:41:22.841Z,21.3
2017-10-01T11:42:24.247Z,21.4
2017-10-01T11:43:25.919Z,21.5
2017-10-01T11:44:27.511Z,21.7
2017-10-01T11:45:29.075Z,21.7
2017-10-01T11:46:30.674Z,21.8
2017-10-01T11:47:32.185Z,22.0
2017-10-01T11:48:33.564Z,22.1
2017-10-01T11:49:34.966Z,21.9
2017-10-01T11:50:36.369Z,22.1
2017-10-01T11:51:37.774Z,21.7
2017-10-01T11:52:39.466Z,21.9
2017-10-01T11:53:40.878Z,21.8
2017-10-01T11:54:42.347Z,21.7
2017-10-01T11:55:43.778Z,22.2
2017-10-01T11:56:45.182Z,22.2
2017-10-01T11:57:46.607Z,22.1
2017-10-01T11:58:48.047Z,22.4
2017-10-01T11:59:49.633Z,22.1
2017-10-01T12:00:51.034Z,22.0
2017-10-01T12:01:52.435Z,22.1
2017-10-01T12:02:53.834Z,21.8
2017-10-01T12:03:55.235Z,21.7
2017-10-01T12:04:56.879Z,21.5
2017-10-01T12:05:58.279Z,21.5
2017-10-01T12:07:00.557Z,21.3
2017-10-01T12:08:01.963Z,21.0
2017-10-01T12:09:03.441Z,21.1
2017-10-01T12:10:04.813Z,21.2
2017-10-01T12:11:06.203Z,21.3
2017-10-01T12:12:07.723Z,21.5
2017-10-01T12:13:09.121Z,21.4
2017-10-01T12:14:10.519Z,21.3
2017-10-01T12:15:12.364Z,21.4
2017-10-01T12:16:14.104Z,21.3
2017-10-01T12:17:15.426Z,21.4
2017-10-01T12:18:16.940Z,21.5
2017-10-01T12:19:18.346Z,21.5
2017-10-01T12:20:19.751Z,21.6
2017-10-01T12:21:21.695Z,21.4
2017-10-01T12:22:23.096Z,21.4
2017-10-01T12:23:24.499Z,21.5
2017-10-01T12:24:26.030Z,21.4
2017-10-01T12:25:27.440Z,21.3
2017-10-01T12:26:28.842Z,21.2
2017-10-01T12:27:30.240Z,21.1
2017-10-01T12:28:31.740Z,21.0
2017-10-01T12:29:33.384Z,21.1
2017-10-01T12:30:34.783Z,21.2
2017-10-01T12:31:36.181Z,21.4
2017-10-01T12:32:37.676Z,21.6
2017-10-01T12:33:39.068Z,21.6
2017-10-01T12:34:40.735Z,21.5
2017-10-01T12:35:42.139Z,21.6
2017-10-01T12:36:43.679Z,21.9
2017-10-01T12:37:45.080Z,22.0
2017-10-01T12:38:46.480Z,22.0
2017-10-01T12:39:47.997Z,21.9
2017-10-01T12:40:49.397Z,21.8
2017-10-01T12:41:50.869Z,21.9
2017-10-01T12:42:52.272Z,21.5
2017-10-01T12:43:53.671Z,21.5
2017-10-01T12:44:55.173Z,21.5
2017-10-01T12:45:56.587Z,21.3
2017-10-01T12:46:57.989Z,21.6
2017-10-01T12:47:59.392Z,21.8
2017-10-01T12:49:01.016Z,21.5
2017-10-01T12:50:03.305Z,21.8
2017-10-01T12:51:04.683Z,21.8
2017-10-01T12:52:06.479Z,21.8
2017-10-01T12:53:08.046Z,21.8
2017-10-01T12:54:10.660Z,21.8
2017-10-01T12:55:11.932Z,21.8
2017-10-01T12:56:13.331Z,21.8
2017-10-01T12:57:14.731Z,21.6
2017-10-01T12:58:16.578Z,21.7
2017-10-01T12:59:17.972Z,21.5
2017-10-01T13:00:19.662Z,21.5
2017-10-01T13:01:21.278Z,21.6
2017-10-01T13:02:22.678Z,21.8
2017-10-01T13:03:24.611Z,21.6
2017-10-01T13:04:26.635Z,21.4
2017-10-01T13:05:28.033Z,21.6
2017-10-01T13:06:29.433Z,21.9
2017-10-01T13:07:31.296Z,22.0
2017-10-01T13:08:32.679Z,22.1
2017-10-01T13:09:34.591Z,22.0
2017-10-01T13:10:36.045Z,22.0
2017-10-01T13:11:38.606Z,22.1
2017-10-01T13:12:40.735Z,22.2
2017-10-01T13:13:43.299Z,22.2
2017-10-01T13:14:45.810Z,21.8
2017-10-01T13:15:48.227Z,21.8
2017-10-01T13:16:50.913Z,21.9
2017-10-01T13:17:52.313Z,21.9
2017-10-01T13:18:53.714Z,21.8
2017-10-01T13:19:55.526Z,21.8
2017-10-01T13:20:57.516Z,22.0
2017-10-01T13:21:58.913Z,22.0
2017-10-01T13:23:00.317Z,22.1
2017-10-01T13:24:01.712Z,22.2
2017-10-01T13:25:03.506Z,22.6
2017-10-01T13:26:04.906Z,22.5
2017-10-01T13:27:06.309Z,22.4
2017-10-01T13:28:07.704Z,22.0
2017-10-01T13:29:10.141Z,21.7
2017-10-01T13:30:11.381Z,21.5
2017-10-01T13:31:12.781Z,21.5
2017-10-01T13:32:14.185Z,21.3
2017-10-01T13:33:15.589Z,21.4
2017-10-01T13:34:16.994Z,21.5
2017-10-01T13:35:18.389Z,21.6
2017-10-01T13:36:19.787Z,21.7
2017-10-01T13:37:21.216Z,21.6